sensor_id;sensor_type;location;lat;lon;timestamp;noise_LAeq;noise_LA_min;noise_LA_max;noise_LA01;noise_LA95
43385;Laerm;28988;48.042;7.584;2023-07-02T00:02:06;84.26;-23.73;95.20;;
43385;Laerm;28988;48.042;7.584;2023-07-02T00:04:31;84.27;-28.51;94.87;;
43385;Laerm;28988;48.042;7.584;2023-07-02T00:06:56;84.30;-22.63;95.10;;
43385;Laerm;28988;48.042;7.584;2023-07-02T00:09:21;84.30;-28.29;95.07;;
43385;Laerm;28988;48.042;7.584;2023-07-02T00:11:47;84.28;-40.13;94.80;;
43385;Laerm;28988;48.042;7.584;2023-07-02T00:14:12;84.26;-22.86;94.81;;
43385;Laerm;28988;48.042;7.584;2023-07-02T00:16:39;84.28;-31.94;94.93;;
43385;Laerm;28988;48.042;7.584;2023-07-02T00:19:05;84.30;-33.10;95.44;;
43385;Laerm;28988;48.042;7.584;2023-07-02T00:21:31;84.29;-28.29;94.58;;
43385;Laerm;28988;48.042;7.584;2023-07-02T00:23:58;84.25;-57.68;95.40;;
43385;Laerm;28988;48.042;7.584;2023-07-02T00:26:27;84.28;-23.73;95.37;;
43385;Laerm;28988;48.042;7.584;2023-07-02T00:28:55;84.29;-33.10;94.98;;
43385;Laerm;28988;48.042;7.584;2023-07-02T00:31:21;84.28;-23.73;94.79;;
43385;Laerm;28988;48.042;7.584;2023-07-02T00:33:46;84.29;-23.73;95.35;;
43385;Laerm;28988;48.042;7.584;2023-07-02T00:36:12;84.27;-57.68;94.53;;
43385;Laerm;28988;48.042;7.584;2023-07-02T00:38:40;84.30;-23.73;95.36;;
43385;Laerm;28988;48.042;7.584;2023-07-02T00:41:05;84.27;-24.05;94.81;;
43385;Laerm;28988;48.042;7.584;2023-07-02T00:43:31;84.28;-23.73;95.06;;
43385;Laerm;28988;48.042;7.584;2023-07-02T00:45:56;84.28;-28.01;94.56;;
43385;Laerm;28988;48.042;7.584;2023-07-02T00:48:21;84.29;-33.10;95.00;;
43385;Laerm;28988;48.042;7.584;2023-07-02T00:50:46;84.28;-20.54;95.03;;
43385;Laerm;28988;48.042;7.584;2023-07-02T00:53:11;84.28;-23.73;94.48;;
43385;Laerm;28988;48.042;7.584;2023-07-02T00:55:37;84.29;-23.73;94.94;;
43385;Laerm;28988;48.042;7.584;2023-07-02T00:58:03;84.29;-23.73;94.51;;
43385;Laerm;28988;48.042;7.584;2023-07-02T01:00:28;84.29;-20.54;94.82;;
43385;Laerm;28988;48.042;7.584;2023-07-02T01:02:54;84.28;-30.03;94.67;;
43385;Laerm;28988;48.042;7.584;2023-07-02T01:05:23;84.29;-28.29;95.43;;
43385;Laerm;28988;48.042;7.584;2023-07-02T01:07:49;84.30;-33.10;95.00;;
43385;Laerm;28988;48.042;7.584;2023-07-02T01:10:14;84.30;-57.68;94.99;;
43385;Laerm;28988;48.042;7.584;2023-07-02T01:12:39;84.29;-26.87;94.82;;
43385;Laerm;28988;48.042;7.584;2023-07-02T01:15:05;84.28;-31.31;95.04;;
43385;Laerm;28988;48.042;7.584;2023-07-02T01:17:31;84.26;-23.73;94.56;;
43385;Laerm;28988;48.042;7.584;2023-07-02T01:20:05;84.28;-22.63;94.54;;
43385;Laerm;28988;48.042;7.584;2023-07-02T01:22:33;84.28;-28.29;94.97;;
43385;Laerm;28988;48.042;7.584;2023-07-02T01:24:58;84.28;-57.68;95.03;;
43385;Laerm;28988;48.042;7.584;2023-07-02T01:27:24;84.28;-23.73;95.09;;
43385;Laerm;28988;48.042;7.584;2023-07-02T01:29:52;84.29;-23.73;95.64;;
43385;Laerm;28988;48.042;7.584;2023-07-02T01:32:18;84.27;-57.68;94.79;;
43385;Laerm;28988;48.042;7.584;2023-07-02T01:34:43;84.28;-23.73;94.94;;
43385;Laerm;28988;48.042;7.584;2023-07-02T01:37:13;84.26;-57.68;94.80;;
43385;Laerm;28988;48.042;7.584;2023-07-02T01:39:39;84.29;-28.03;94.72;;
43385;Laerm;28988;48.042;7.584;2023-07-02T01:42:08;84.27;-33.29;95.47;;
43385;Laerm;28988;48.042;7.584;2023-07-02T01:44:34;84.28;-23.73;94.79;;
43385;Laerm;28988;48.042;7.584;2023-07-02T01:46:59;84.27;-28.29;95.19;;
43385;Laerm;28988;48.042;7.584;2023-07-02T01:49:24;84.26;-57.68;94.86;;
43385;Laerm;28988;48.042;7.584;2023-07-02T01:51:50;84.28;-23.73;94.48;;
43385;Laerm;28988;48.042;7.584;2023-07-02T01:54:15;84.27;-26.58;94.90;;
43385;Laerm;28988;48.042;7.584;2023-07-02T01:56:41;84.28;-23.73;94.76;;
43385;Laerm;28988;48.042;7.584;2023-07-02T01:59:06;84.28;-23.73;94.57;;
43385;Laerm;28988;48.042;7.584;2023-07-02T02:01:31;84.28;-20.54;95.02;;
43385;Laerm;28988;48.042;7.584;2023-07-02T02:03:57;84.27;-28.29;94.91;;
43385;Laerm;28988;48.042;7.584;2023-07-02T02:06:22;84.26;-57.68;94.43;;
43385;Laerm;28988;48.042;7.584;2023-07-02T02:08:48;84.27;-33.10;95.23;;
43385;Laerm;28988;48.042;7.584;2023-07-02T02:11:13;84.26;-57.68;95.02;;
43385;Laerm;28988;48.042;7.584;2023-07-02T02:13:38;84.26;-20.54;94.81;;
43385;Laerm;28988;48.042;7.584;2023-07-02T02:16:03;84.27;-36.67;94.86;;
43385;Laerm;28988;48.042;7.584;2023-07-02T02:18:28;84.27;-53.96;94.48;;
43385;Laerm;28988;48.042;7.584;2023-07-02T02:20:54;84.26;-36.42;95.04;;
43385;Laerm;28988;48.042;7.584;2023-07-02T02:23:19;84.26;-23.73;95.05;;
43385;Laerm;28988;48.042;7.584;2023-07-02T02:25:44;84.26;-57.68;94.82;;
43385;Laerm;28988;48.042;7.584;2023-07-02T02:28:09;84.27;-35.58;94.90;;
43385;Laerm;28988;48.042;7.584;2023-07-02T02:30:35;84.27;-23.73;94.99;;
43385;Laerm;28988;48.042;7.584;2023-07-02T02:33:00;84.26;-23.73;94.84;;
43385;Laerm;28988;48.042;7.584;2023-07-02T02:35:25;84.27;-57.68;95.32;;
43385;Laerm;28988;48.042;7.584;2023-07-02T02:37:50;84.23;-23.73;94.61;;
43385;Laerm;28988;48.042;7.584;2023-07-02T02:40:15;84.26;-23.73;95.12;;
43385;Laerm;28988;48.042;7.584;2023-07-02T02:42:40;84.26;-41.54;95.17;;
43385;Laerm;28988;48.042;7.584;2023-07-02T02:45:06;84.28;-33.10;94.82;;
43385;Laerm;28988;48.042;7.584;2023-07-02T02:47:31;84.25;-25.07;95.10;;
43385;Laerm;28988;48.042;7.584;2023-07-02T02:49:56;84.25;-28.29;95.14;;
43385;Laerm;28988;48.042;7.584;2023-07-02T02:52:21;84.25;-29.33;94.48;;
43385;Laerm;28988;48.042;7.584;2023-07-02T02:54:47;84.27;-23.73;95.19;;
43385;Laerm;28988;48.042;7.584;2023-07-02T02:57:12;84.27;-23.73;94.53;;
43385;Laerm;28988;48.042;7.584;2023-07-02T02:59:38;84.25;-23.73;94.88;;
43385;Laerm;28988;48.042;7.584;2023-07-02T03:02:03;84.25;-57.68;94.58;;
43385;Laerm;28988;48.042;7.584;2023-07-02T03:04:29;84.25;-57.68;94.67;;
43385;Laerm;28988;48.042;7.584;2023-07-02T03:06:54;84.24;-20.54;94.68;;
43385;Laerm;28988;48.042;7.584;2023-07-02T03:09:20;84.24;-57.68;94.46;;
43385;Laerm;28988;48.042;7.584;2023-07-02T03:11:46;84.26;-33.10;95.07;;
43385;Laerm;28988;48.042;7.584;2023-07-02T03:14:11;84.24;-33.10;94.29;;
43385;Laerm;28988;48.042;7.584;2023-07-02T03:16:36;84.23;-57.68;94.93;;
43385;Laerm;28988;48.042;7.584;2023-07-02T03:19:02;84.25;-57.68;94.60;;
43385;Laerm;28988;48.042;7.584;2023-07-02T03:21:28;84.24;-23.73;94.94;;
43385;Laerm;28988;48.042;7.584;2023-07-02T03:23:54;84.23;-57.68;94.79;;
43385;Laerm;28988;48.042;7.584;2023-07-02T03:26:20;84.27;-28.29;95.44;;
43385;Laerm;28988;48.042;7.584;2023-07-02T03:28:45;84.25;-57.68;94.45;;
43385;Laerm;28988;48.042;7.584;2023-07-02T03:31:10;84.26;-57.68;94.43;;
43385;Laerm;28988;48.042;7.584;2023-07-02T03:33:35;84.27;-28.29;94.86;;
43385;Laerm;28988;48.042;7.584;2023-07-02T03:36:00;84.28;-57.68;95.10;;
43385;Laerm;28988;48.042;7.584;2023-07-02T03:38:26;84.27;-57.68;95.17;;
43385;Laerm;28988;48.042;7.584;2023-07-02T03:40:51;84.26;-28.29;94.95;;
43385;Laerm;28988;48.042;7.584;2023-07-02T03:43:16;84.28;-23.73;95.19;;
43385;Laerm;28988;48.042;7.584;2023-07-02T03:45:41;84.27;-34.16;94.43;;
43385;Laerm;28988;48.042;7.584;2023-07-02T03:48:06;84.28;-28.29;94.94;;
43385;Laerm;28988;48.042;7.584;2023-07-02T03:50:31;84.28;-27.71;95.24;;
43385;Laerm;28988;48.042;7.584;2023-07-02T03:52:57;84.29;-23.73;94.98;;
43385;Laerm;28988;48.042;7.584;2023-07-02T03:55:22;84.27;-31.18;95.32;;
43385;Laerm;28988;48.042;7.584;2023-07-02T03:57:47;84.28;-23.73;95.05;;
43385;Laerm;28988;48.042;7.584;2023-07-02T04:00:12;84.28;-47.82;94.83;;
43385;Laerm;28988;48.042;7.584;2023-07-02T04:02:37;84.28;-23.73;95.18;;
43385;Laerm;28988;48.042;7.584;2023-07-02T04:05:03;84.28;-57.68;94.69;;
43385;Laerm;28988;48.042;7.584;2023-07-02T04:07:28;84.27;-23.73;94.50;;
43385;Laerm;28988;48.042;7.584;2023-07-02T04:09:53;84.26;-23.73;95.48;;
43385;Laerm;28988;48.042;7.584;2023-07-02T04:12:18;84.29;-38.74;94.70;;
43385;Laerm;28988;48.042;7.584;2023-07-02T04:14:43;84.28;-22.63;95.17;;
43385;Laerm;28988;48.042;7.584;2023-07-02T04:17:09;84.28;-23.73;94.89;;
43385;Laerm;28988;48.042;7.584;2023-07-02T04:19:34;84.26;-23.73;95.32;;
43385;Laerm;28988;48.042;7.584;2023-07-02T04:21:59;84.27;-23.73;95.12;;
43385;Laerm;28988;48.042;7.584;2023-07-02T04:24:24;84.27;-57.68;94.94;;
43385;Laerm;28988;48.042;7.584;2023-07-02T04:26:51;84.26;-23.73;95.14;;
43385;Laerm;28988;48.042;7.584;2023-07-02T04:29:16;84.27;-33.10;94.86;;
43385;Laerm;28988;48.042;7.584;2023-07-02T04:31:41;84.28;-23.73;94.52;;
43385;Laerm;28988;48.042;7.584;2023-07-02T04:34:06;84.29;-23.73;94.95;;
43385;Laerm;28988;48.042;7.584;2023-07-02T04:36:31;84.28;-26.87;94.89;;
43385;Laerm;28988;48.042;7.584;2023-07-02T04:38:57;84.28;-23.73;95.18;;
43385;Laerm;28988;48.042;7.584;2023-07-02T04:41:22;84.27;-18.47;94.83;;
43385;Laerm;28988;48.042;7.584;2023-07-02T04:43:47;84.27;-25.35;94.99;;
43385;Laerm;28988;48.042;7.584;2023-07-02T04:46:13;84.29;-26.95;95.21;;
43385;Laerm;28988;48.042;7.584;2023-07-02T04:48:38;84.28;-28.29;94.70;;
43385;Laerm;28988;48.042;7.584;2023-07-02T04:51:03;84.26;-57.68;94.97;;
43385;Laerm;28988;48.042;7.584;2023-07-02T04:53:29;84.27;-30.89;95.07;;
43385;Laerm;28988;48.042;7.584;2023-07-02T04:55:54;84.28;-57.68;94.96;;
43385;Laerm;28988;48.042;7.584;2023-07-02T04:58:19;84.28;-28.29;94.82;;
43385;Laerm;28988;48.042;7.584;2023-07-02T05:00:45;84.27;-57.68;95.80;;
43385;Laerm;28988;48.042;7.584;2023-07-02T05:03:10;84.27;-57.68;95.15;;
43385;Laerm;28988;48.042;7.584;2023-07-02T05:05:35;84.28;-23.73;94.41;;
43385;Laerm;28988;48.042;7.584;2023-07-02T05:08:00;84.27;-23.73;95.17;;
43385;Laerm;28988;48.042;7.584;2023-07-02T05:10:26;84.27;-23.73;95.36;;
43385;Laerm;28988;48.042;7.584;2023-07-02T05:12:51;84.27;-57.68;95.03;;
43385;Laerm;28988;48.042;7.584;2023-07-02T05:15:16;84.28;-28.29;95.27;;
43385;Laerm;28988;48.042;7.584;2023-07-02T05:17:41;84.28;-28.29;94.77;;
43385;Laerm;28988;48.042;7.584;2023-07-02T05:20:07;84.28;-23.73;95.35;;
43385;Laerm;28988;48.042;7.584;2023-07-02T05:22:32;84.26;-57.68;95.18;;
43385;Laerm;28988;48.042;7.584;2023-07-02T05:24:57;84.25;-57.68;94.15;;
43385;Laerm;28988;48.042;7.584;2023-07-02T05:27:22;84.26;-23.73;94.79;;
43385;Laerm;28988;48.042;7.584;2023-07-02T05:29:47;84.27;-57.68;94.31;;
43385;Laerm;28988;48.042;7.584;2023-07-02T05:32:13;84.26;-39.66;94.23;;
43385;Laerm;28988;48.042;7.584;2023-07-02T05:34:38;84.26;-28.29;94.99;;
43385;Laerm;28988;48.042;7.584;2023-07-02T05:37:03;84.26;-23.73;94.79;;
43385;Laerm;28988;48.042;7.584;2023-07-02T05:39:28;84.25;-23.73;95.17;;
43385;Laerm;28988;48.042;7.584;2023-07-02T05:41:54;84.25;-23.73;95.00;;
43385;Laerm;28988;48.042;7.584;2023-07-02T05:44:19;84.25;-33.10;94.70;;
43385;Laerm;28988;48.042;7.584;2023-07-02T05:46:45;84.26;-28.29;95.04;;
43385;Laerm;28988;48.042;7.584;2023-07-02T05:49:10;84.26;-23.73;94.58;;
43385;Laerm;28988;48.042;7.584;2023-07-02T05:51:35;84.25;-22.63;94.57;;
43385;Laerm;28988;48.042;7.584;2023-07-02T05:54:00;84.24;-57.68;94.83;;
43385;Laerm;28988;48.042;7.584;2023-07-02T05:56:25;84.24;-28.29;94.66;;
43385;Laerm;28988;48.042;7.584;2023-07-02T05:58:51;84.24;-28.29;94.21;;
43385;Laerm;28988;48.042;7.584;2023-07-02T06:01:16;84.24;-46.99;94.57;;
43385;Laerm;28988;48.042;7.584;2023-07-02T06:03:41;84.24;-23.73;95.12;;
43385;Laerm;28988;48.042;7.584;2023-07-02T06:06:08;84.23;-25.34;94.56;;
43385;Laerm;28988;48.042;7.584;2023-07-02T06:08:33;84.24;-57.68;94.40;;
43385;Laerm;28988;48.042;7.584;2023-07-02T06:10:58;84.22;-23.73;94.48;;
43385;Laerm;28988;48.042;7.584;2023-07-02T06:13:24;84.24;-26.87;94.55;;
43385;Laerm;28988;48.042;7.584;2023-07-02T06:15:49;84.23;-23.73;94.67;;
43385;Laerm;28988;48.042;7.584;2023-07-02T06:18:14;84.23;-57.68;94.26;;
43385;Laerm;28988;48.042;7.584;2023-07-02T06:20:39;84.23;-57.68;94.28;;
43385;Laerm;28988;48.042;7.584;2023-07-02T06:23:04;84.24;-33.10;94.10;;
43385;Laerm;28988;48.042;7.584;2023-07-02T06:25:30;84.25;-28.29;94.86;;
43385;Laerm;28988;48.042;7.584;2023-07-02T06:27:55;84.23;-23.73;94.59;;
43385;Laerm;28988;48.042;7.584;2023-07-02T06:30:23;84.23;-24.89;94.60;;
43385;Laerm;28988;48.042;7.584;2023-07-02T06:32:48;84.23;-57.68;94.56;;
43385;Laerm;28988;48.042;7.584;2023-07-02T06:35:13;84.23;-33.10;94.37;;
43385;Laerm;28988;48.042;7.584;2023-07-02T06:37:38;84.23;-23.73;94.55;;
43385;Laerm;28988;48.042;7.584;2023-07-02T06:40:04;84.23;-57.68;94.32;;
43385;Laerm;28988;48.042;7.584;2023-07-02T06:42:29;84.22;-36.99;94.99;;
43385;Laerm;28988;48.042;7.584;2023-07-02T06:44:55;84.22;-28.29;94.41;;
43385;Laerm;28988;48.042;7.584;2023-07-02T06:47:20;84.23;-57.68;94.43;;
43385;Laerm;28988;48.042;7.584;2023-07-02T06:49:45;84.20;-23.73;94.09;;
43385;Laerm;28988;48.042;7.584;2023-07-02T06:52:10;84.22;-23.73;93.86;;
43385;Laerm;28988;48.042;7.584;2023-07-02T06:54:35;84.21;-23.73;93.86;;
43385;Laerm;28988;48.042;7.584;2023-07-02T06:57:01;84.21;-30.60;93.52;;
43385;Laerm;28988;48.042;7.584;2023-07-02T06:59:26;84.20;-33.10;93.80;;
43385;Laerm;28988;48.042;7.584;2023-07-02T07:01:51;84.19;-23.73;93.82;;
43385;Laerm;28988;48.042;7.584;2023-07-02T07:04:16;84.19;-57.68;94.15;;
43385;Laerm;28988;48.042;7.584;2023-07-02T07:06:42;84.19;-57.68;94.01;;
43385;Laerm;28988;48.042;7.584;2023-07-02T07:09:07;84.19;-33.10;94.43;;
43385;Laerm;28988;48.042;7.584;2023-07-02T07:11:32;84.18;-33.10;94.30;;
43385;Laerm;28988;48.042;7.584;2023-07-02T07:13:57;84.20;-28.29;94.06;;
43385;Laerm;28988;48.042;7.584;2023-07-02T07:16:22;84.20;-26.52;94.27;;
43385;Laerm;28988;48.042;7.584;2023-07-02T07:18:48;84.19;-57.68;94.28;;
43385;Laerm;28988;48.042;7.584;2023-07-02T07:21:13;84.20;-20.54;94.00;;
43385;Laerm;28988;48.042;7.584;2023-07-02T07:23:39;84.20;-28.29;94.38;;
43385;Laerm;28988;48.042;7.584;2023-07-02T07:26:04;84.19;-23.73;94.15;;
43385;Laerm;28988;48.042;7.584;2023-07-02T07:28:29;84.20;-57.68;94.16;;
43385;Laerm;28988;48.042;7.584;2023-07-02T07:30:55;84.19;-22.63;94.62;;
43385;Laerm;28988;48.042;7.584;2023-07-02T07:33:20;84.21;-57.68;94.31;;
43385;Laerm;28988;48.042;7.584;2023-07-02T07:35:45;84.19;-25.86;93.69;;
43385;Laerm;28988;48.042;7.584;2023-07-02T07:38:12;84.20;-28.29;94.12;;
43385;Laerm;28988;48.042;7.584;2023-07-02T07:40:37;84.20;-33.10;94.20;;
43385;Laerm;28988;48.042;7.584;2023-07-02T07:43:03;84.19;-57.68;93.73;;
43385;Laerm;28988;48.042;7.584;2023-07-02T07:45:28;84.19;-22.86;94.42;;
43385;Laerm;28988;48.042;7.584;2023-07-02T07:47:53;84.19;-32.74;93.95;;
43385;Laerm;28988;48.042;7.584;2023-07-02T07:50:19;84.18;-57.68;94.56;;
43385;Laerm;28988;48.042;7.584;2023-07-02T07:52:44;84.19;-23.73;94.01;;
43385;Laerm;28988;48.042;7.584;2023-07-02T07:55:10;84.19;-23.73;93.86;;
43385;Laerm;28988;48.042;7.584;2023-07-02T07:57:35;84.19;-23.73;94.11;;
43385;Laerm;28988;48.042;7.584;2023-07-02T08:00:01;84.18;-34.16;94.16;;
43385;Laerm;28988;48.042;7.584;2023-07-02T08:02:29;84.19;-57.68;94.11;;
43385;Laerm;28988;48.042;7.584;2023-07-02T08:04:54;84.18;-34.16;93.91;;
43385;Laerm;28988;48.042;7.584;2023-07-02T08:07:19;84.18;-57.68;94.01;;
43385;Laerm;28988;48.042;7.584;2023-07-02T08:09:44;84.18;-23.73;92.99;;
43385;Laerm;28988;48.042;7.584;2023-07-02T08:12:09;84.18;-22.63;93.82;;
43385;Laerm;28988;48.042;7.584;2023-07-02T08:14:35;84.17;-57.68;93.53;;
43385;Laerm;28988;48.042;7.584;2023-07-02T08:17:00;84.18;-34.16;93.97;;
43385;Laerm;28988;48.042;7.584;2023-07-02T08:19:25;84.18;-57.68;94.16;;
43385;Laerm;28988;48.042;7.584;2023-07-02T08:21:50;84.18;-34.29;94.14;;
43385;Laerm;28988;48.042;7.584;2023-07-02T08:24:15;84.17;-33.10;93.95;;
43385;Laerm;28988;48.042;7.584;2023-07-02T08:26:41;84.17;-34.16;93.36;;
43385;Laerm;28988;48.042;7.584;2023-07-02T08:29:06;84.17;-57.68;94.12;;
43385;Laerm;28988;48.042;7.584;2023-07-02T08:31:31;84.17;-57.68;93.36;;
43385;Laerm;28988;48.042;7.584;2023-07-02T08:33:57;84.16;-34.16;92.99;;
43385;Laerm;28988;48.042;7.584;2023-07-02T08:36:22;84.16;-57.68;93.37;;
43385;Laerm;28988;48.042;7.584;2023-07-02T08:38:47;84.17;-33.10;93.35;;
43385;Laerm;28988;48.042;7.584;2023-07-02T08:41:12;84.17;-39.66;93.99;;
43385;Laerm;28988;48.042;7.584;2023-07-02T08:43:38;84.17;-23.73;93.40;;
43385;Laerm;28988;48.042;7.584;2023-07-02T08:46:03;84.15;-23.73;93.11;;
43385;Laerm;28988;48.042;7.584;2023-07-02T08:48:29;84.15;-39.66;93.47;;
43385;Laerm;28988;48.042;7.584;2023-07-02T08:50:55;84.16;-33.10;93.51;;
43385;Laerm;28988;48.042;7.584;2023-07-02T08:53:20;84.15;-57.68;93.18;;
43385;Laerm;28988;48.042;7.584;2023-07-02T08:55:50;84.16;-57.68;93.31;;
43385;Laerm;28988;48.042;7.584;2023-07-02T08:58:16;84.17;-28.29;93.49;;
43385;Laerm;28988;48.042;7.584;2023-07-02T09:01:03;84.16;-33.10;93.65;;
43385;Laerm;28988;48.042;7.584;2023-07-02T09:03:27;84.15;-57.68;93.53;;
43385;Laerm;28988;48.042;7.584;2023-07-02T09:05:52;84.16;-23.58;93.84;;
43385;Laerm;28988;48.042;7.584;2023-07-02T09:08:24;84.15;-57.68;93.74;;
43385;Laerm;28988;48.042;7.584;2023-07-02T09:10:49;84.15;-34.16;94.11;;
43385;Laerm;28988;48.042;7.584;2023-07-02T09:13:14;84.14;-57.68;92.89;;
43385;Laerm;28988;48.042;7.584;2023-07-02T09:15:40;84.15;-57.68;93.32;;
43385;Laerm;28988;48.042;7.584;2023-07-02T09:18:18;84.15;-57.68;93.51;;
43385;Laerm;28988;48.042;7.584;2023-07-02T09:20:43;84.15;-57.68;93.86;;
43385;Laerm;28988;48.042;7.584;2023-07-02T09:23:08;84.14;-57.68;93.91;;
43385;Laerm;28988;48.042;7.584;2023-07-02T09:25:37;84.14;-57.68;93.45;;
43385;Laerm;28988;48.042;7.584;2023-07-02T09:28:13;84.15;-57.68;93.57;;
43385;Laerm;28988;48.042;7.584;2023-07-02T09:30:38;84.15;-57.68;92.99;;
43385;Laerm;28988;48.042;7.584;2023-07-02T09:33:13;84.14;-57.68;93.45;;
43385;Laerm;28988;48.042;7.584;2023-07-02T09:35:40;84.15;-28.29;93.40;;
43385;Laerm;28988;48.042;7.584;2023-07-02T09:38:05;84.14;-33.10;93.27;;
43385;Laerm;28988;48.042;7.584;2023-07-02T09:40:31;84.15;-34.16;93.41;;
43385;Laerm;28988;48.042;7.584;2023-07-02T09:42:56;84.13;-57.68;93.17;;
43385;Laerm;28988;48.042;7.584;2023-07-02T09:45:22;84.15;-33.10;92.89;;
43385;Laerm;28988;48.042;7.584;2023-07-02T09:47:47;84.14;-23.73;93.27;;
43385;Laerm;28988;48.042;7.584;2023-07-02T09:50:14;84.15;-57.68;93.12;;
43385;Laerm;28988;48.042;7.584;2023-07-02T09:52:40;84.14;-47.13;93.36;;
43385;Laerm;28988;48.042;7.584;2023-07-02T09:55:06;84.15;-23.73;93.15;;
43385;Laerm;28988;48.042;7.584;2023-07-02T09:57:31;84.15;-33.10;93.45;;
43385;Laerm;28988;48.042;7.584;2023-07-02T09:59:59;84.15;-20.71;93.40;;
43385;Laerm;28988;48.042;7.584;2023-07-02T10:02:24;84.15;-57.68;93.72;;
43385;Laerm;28988;48.042;7.584;2023-07-02T10:04:49;84.15;-33.10;93.22;;
43385;Laerm;28988;48.042;7.584;2023-07-02T10:07:26;84.15;-33.10;93.17;;
43385;Laerm;28988;48.042;7.584;2023-07-02T10:09:52;84.15;-57.68;93.04;;
43385;Laerm;28988;48.042;7.584;2023-07-02T10:12:21;84.15;-33.10;93.22;;
43385;Laerm;28988;48.042;7.584;2023-07-02T10:14:47;84.15;-23.73;93.27;;
43385;Laerm;28988;48.042;7.584;2023-07-02T10:17:28;84.15;-57.68;93.18;;
43385;Laerm;28988;48.042;7.584;2023-07-02T10:19:54;84.15;-57.68;93.22;;
43385;Laerm;28988;48.042;7.584;2023-07-02T10:22:20;84.14;-28.29;93.18;;
43385;Laerm;28988;48.042;7.584;2023-07-02T10:27:18;84.15;-34.16;92.99;;
43385;Laerm;28988;48.042;7.584;2023-07-02T10:29:49;84.16;-26.13;93.66;;
43385;Laerm;28988;48.042;7.584;2023-07-02T10:32:25;84.15;-57.68;93.77;;
43385;Laerm;28988;48.042;7.584;2023-07-02T10:34:50;84.16;-31.14;93.64;;
43385;Laerm;28988;48.042;7.584;2023-07-02T10:37:15;84.16;-57.68;93.68;;
43385;Laerm;28988;48.042;7.584;2023-07-02T10:39:41;84.17;-57.68;93.46;;
43385;Laerm;28988;48.042;7.584;2023-07-02T10:42:09;84.15;-57.68;93.56;;
43385;Laerm;28988;48.042;7.584;2023-07-02T10:44:35;84.16;-57.68;93.64;;
43385;Laerm;28988;48.042;7.584;2023-07-02T10:47:00;84.16;-33.10;93.68;;
43385;Laerm;28988;48.042;7.584;2023-07-02T10:49:31;84.17;-28.29;93.85;;
43385;Laerm;28988;48.042;7.584;2023-07-02T10:51:58;84.17;-23.73;93.36;;
43385;Laerm;28988;48.042;7.584;2023-07-02T10:54:23;84.15;-57.68;93.53;;
43385;Laerm;28988;48.042;7.584;2023-07-02T10:56:48;84.17;-28.29;93.53;;
43385;Laerm;28988;48.042;7.584;2023-07-02T10:59:23;84.16;-57.68;93.53;;
43385;Laerm;28988;48.042;7.584;2023-07-02T11:01:50;84.17;-57.68;93.36;;
43385;Laerm;28988;48.042;7.584;2023-07-02T11:04:15;84.16;-23.73;93.34;;
43385;Laerm;28988;48.042;7.584;2023-07-02T11:06:40;84.16;-28.29;93.28;;
43385;Laerm;28988;48.042;7.584;2023-07-02T11:09:14;84.17;-28.29;93.47;;
43385;Laerm;28988;48.042;7.584;2023-07-02T11:11:49;84.16;-23.73;93.96;;
43385;Laerm;28988;48.042;7.584;2023-07-02T11:14:14;84.15;-57.68;93.14;;
43385;Laerm;28988;48.042;7.584;2023-07-02T11:16:39;84.17;-29.88;93.13;;
43385;Laerm;28988;48.042;7.584;2023-07-02T11:19:08;84.16;-57.68;93.46;;
43385;Laerm;28988;48.042;7.584;2023-07-02T11:21:33;84.15;-33.10;93.18;;
43385;Laerm;28988;48.042;7.584;2023-07-02T11:24:06;84.16;-57.68;93.66;;
43385;Laerm;28988;48.042;7.584;2023-07-02T11:26:38;84.15;-57.68;92.94;;
43385;Laerm;28988;48.042;7.584;2023-07-02T11:29:03;84.15;-33.10;93.36;;
43385;Laerm;28988;48.042;7.584;2023-07-02T11:31:28;84.15;-57.68;93.36;;
43385;Laerm;28988;48.042;7.584;2023-07-02T11:33:53;84.16;-23.73;93.67;;
43385;Laerm;28988;48.042;7.584;2023-07-02T11:36:20;84.16;-22.86;93.26;;
43385;Laerm;28988;48.042;7.584;2023-07-02T11:38:45;84.14;-57.68;92.90;;
43385;Laerm;28988;48.042;7.584;2023-07-02T11:41:11;84.14;-57.68;93.18;;
43385;Laerm;28988;48.042;7.584;2023-07-02T11:43:37;84.14;-57.68;94.16;;
43385;Laerm;28988;48.042;7.584;2023-07-02T11:46:02;84.14;-57.68;93.22;;
43385;Laerm;28988;48.042;7.584;2023-07-02T11:48:28;84.18;-33.10;93.34;;
43385;Laerm;28988;48.042;7.584;2023-07-02T11:50:53;84.35;-36.45;93.61;;
43385;Laerm;28988;48.042;7.584;2023-07-02T11:53:18;84.49;-37.20;93.57;;
43385;Laerm;28988;48.042;7.584;2023-07-02T11:55:43;84.29;-27.55;93.57;;
43385;Laerm;28988;48.042;7.584;2023-07-02T11:58:08;84.16;-36.24;93.71;;
43385;Laerm;28988;48.042;7.584;2023-07-02T12:00:33;84.14;-37.27;93.09;;
43385;Laerm;28988;48.042;7.584;2023-07-02T12:02:59;84.14;-33.10;93.35;;
43385;Laerm;28988;48.042;7.584;2023-07-02T12:05:28;84.15;-33.10;93.16;;
43385;Laerm;28988;48.042;7.584;2023-07-02T12:07:53;84.14;-33.10;93.13;;
43385;Laerm;28988;48.042;7.584;2023-07-02T12:10:18;84.15;-33.10;93.65;;
43385;Laerm;28988;48.042;7.584;2023-07-02T12:12:43;84.14;-57.68;93.23;;
43385;Laerm;28988;48.042;7.584;2023-07-02T12:15:15;84.14;-34.16;93.49;;
43385;Laerm;28988;48.042;7.584;2023-07-02T12:17:40;84.14;-33.10;93.52;;
43385;Laerm;28988;48.042;7.584;2023-07-02T12:20:05;84.15;-28.29;93.26;;
43385;Laerm;28988;48.042;7.584;2023-07-02T12:22:31;84.14;-33.10;93.09;;
43385;Laerm;28988;48.042;7.584;2023-07-02T12:24:56;84.14;-23.73;93.50;;
43385;Laerm;28988;48.042;7.584;2023-07-02T12:27:22;84.14;-57.68;93.40;;
43385;Laerm;28988;48.042;7.584;2023-07-02T12:29:47;84.14;-33.10;93.17;;
43385;Laerm;28988;48.042;7.584;2023-07-02T12:32:13;84.14;-28.29;93.26;;
43385;Laerm;28988;48.042;7.584;2023-07-02T12:34:39;84.14;-57.68;93.37;;
43385;Laerm;28988;48.042;7.584;2023-07-02T12:37:04;84.17;-57.68;93.25;;
43385;Laerm;28988;48.042;7.584;2023-07-02T12:39:29;84.36;-24.13;93.53;;
43385;Laerm;28988;48.042;7.584;2023-07-02T12:41:54;86.81;-33.80;95.14;;
43385;Laerm;28988;48.042;7.584;2023-07-02T12:44:19;91.38;-39.91;97.39;;
43385;Laerm;28988;48.042;7.584;2023-07-02T12:46:45;93.80;-33.17;98.43;;
43385;Laerm;28988;48.042;7.584;2023-07-02T12:49:11;95.06;-24.59;99.38;;
43385;Laerm;28988;48.042;7.584;2023-07-02T12:51:36;95.20;-40.69;99.49;;
43385;Laerm;28988;48.042;7.584;2023-07-02T12:54:01;93.36;-71.71;99.51;;
43385;Laerm;28988;48.042;7.584;2023-07-02T12:56:26;88.19;-41.63;97.85;;
43385;Laerm;28988;48.042;7.584;2023-07-02T12:58:51;85.17;-41.38;96.06;;
43385;Laerm;28988;48.042;7.584;2023-07-02T13:01:17;85.06;-33.31;95.98;;
43385;Laerm;28988;48.042;7.584;2023-07-02T13:03:45;85.02;-42.28;95.73;;
43385;Laerm;28988;48.042;7.584;2023-07-02T13:06:12;84.95;-25.78;95.64;;
43385;Laerm;28988;48.042;7.584;2023-07-02T13:08:37;83.83;-44.03;94.88;;
43385;Laerm;28988;48.042;7.584;2023-07-02T13:11:02;83.72;-33.02;94.28;;
43385;Laerm;28988;48.042;7.584;2023-07-02T13:13:27;85.74;-45.58;96.27;;
43385;Laerm;28988;48.042;7.584;2023-07-02T13:15:52;89.50;-65.86;98.15;;
43385;Laerm;28988;48.042;7.584;2023-07-02T13:18:17;92.69;-33.06;99.29;;
43385;Laerm;28988;48.042;7.584;2023-07-02T13:20:43;94.49;-33.43;99.55;;
43385;Laerm;28988;48.042;7.584;2023-07-02T13:23:08;92.97;-55.17;99.31;;
43385;Laerm;28988;48.042;7.584;2023-07-02T13:25:33;90.54;-61.10;98.11;;
43385;Laerm;28988;48.042;7.584;2023-07-02T13:27:58;90.97;-66.55;99.68;;